Impacts TAF Board INFO
FOR SITUATIONAL AWARENESS. NOT TO BE USED FOR FLIGHT PLANNING PURPOSES.
IDs:

KGTR - Golden Triangle Arpt, MS, US

Issued at 0520 UTC 17 Aug 2018
Updated at 0931 UTC 17 Aug 2018
Potential Impact None Slight Moderate High
Time<<17/22Z 17/23Z 18/00Z 18/01Z 18/02Z 18/03Z 18/04Z 18/05Z 18/06Z 18/07Z 18/08Z 18/09Z 18/10Z>>
Type PRVL PRVL PRVL PRVL PRVL PRVL PRVL PRVL
VIS 5 5 5 >6 >6 >6 >6 >6
CIG 50 50 50 50 50 50 50 50
Cover BKN BKN BKN BKN BKN BKN BKN BKN
FltCat MVFR MVFR MVFR VFR VFR VFR VFR VFR
WX -TSRA -TSRA -TSRA VCTS VCTS VCTS VCTS VCTS
WDir 200 200 200 190 190 190 190 190
WSpd 8 8 8 5 5 5 5 5
WGst -- -- -- -- -- -- -- --

Raw TAF
KGTR 170520Z 1706/1806 17006KT P6SM FEW090 SCT130
  FM171600 20006KT P6SM VCTS BKN050CB BKN130
  FM171800 20008KT 5SM -TSRA BKN050CB BKN090
  FM180100 19005KT P6SM VCTS BKN050CB BKN250


METAR Board
Radar Display
Forecast Discussion

FOR SITUATIONAL AWARENESS. NOT TO BE USED FOR FLIGHT PLANNING PURPOSES.